createdAt,value
2019-05-16T00:01:09.338Z,9.40
2019-05-16T00:03:38.593Z,9.40
2019-05-16T00:06:08.595Z,9.30
2019-05-16T00:08:38.815Z,9.30
2019-05-16T00:11:08.604Z,9.30
2019-05-16T00:13:38.393Z,9.30
2019-05-16T00:16:08.047Z,9.30
2019-05-16T00:18:38.828Z,9.20
2019-05-16T00:21:08.743Z,9.20
2019-05-16T00:23:37.992Z,9.20
2019-05-16T00:26:07.894Z,9.20
2019-05-16T00:28:38.010Z,9.20
2019-05-16T00:31:08.709Z,9.20
2019-05-16T00:33:38.076Z,9.20
2019-05-16T00:36:09.184Z,9.30
2019-05-16T00:38:38.220Z,9.30
2019-05-16T00:41:08.502Z,9.20
2019-05-16T00:43:37.945Z,9.20
2019-05-16T00:46:08.261Z,9.30
2019-05-16T00:48:38.196Z,9.20
2019-05-16T00:51:07.917Z,9.30
2019-05-16T00:53:38.244Z,9.30
2019-05-16T00:56:08.040Z,9.30
2019-05-16T00:58:38.088Z,9.30
2019-05-16T01:01:08.548Z,9.30
2019-05-16T01:03:37.914Z,9.20
2019-05-16T01:06:16.676Z,9.20
2019-05-16T01:08:38.501Z,9.20
2019-05-16T01:11:08.051Z,9.20
2019-05-16T01:13:38.032Z,9.20
2019-05-16T01:16:08.583Z,9.30
2019-05-16T01:18:38.090Z,9.30
2019-05-16T01:21:07.856Z,9.20
2019-05-16T01:23:38.818Z,9.20
2019-05-16T01:26:08.115Z,9.10
2019-05-16T01:28:37.741Z,9.10
2019-05-16T01:31:08.602Z,9.20
2019-05-16T01:33:38.557Z,9.20
2019-05-16T01:36:08.981Z,9.20
2019-05-16T01:38:39.004Z,9.20
2019-05-16T01:41:08.861Z,9.20
2019-05-16T01:43:38.374Z,9.10
2019-05-16T01:46:08.403Z,9.10
2019-05-16T01:48:38.096Z,9.00
2019-05-16T01:51:07.881Z,9.00
2019-05-16T01:53:39.325Z,8.90
2019-05-16T01:56:08.568Z,8.90
2019-05-16T01:58:38.280Z,8.80
2019-05-16T02:01:13.098Z,8.80
2019-05-16T02:03:38.756Z,8.70
2019-05-16T02:06:08.854Z,8.70
2019-05-16T02:08:38.163Z,8.70
2019-05-16T02:11:08.512Z,8.60
2019-05-16T02:13:39.053Z,8.60
2019-05-16T02:16:08.565Z,8.60
2019-05-16T02:18:38.215Z,8.50
2019-05-16T02:21:07.932Z,8.50
2019-05-16T02:23:38.150Z,8.50
2019-05-16T02:26:07.992Z,8.50
2019-05-16T02:28:42.908Z,8.50
2019-05-16T02:31:11.888Z,8.40
2019-05-16T02:33:40.621Z,8.40
2019-05-16T02:36:10.923Z,8.40
2019-05-16T02:38:42.307Z,8.30
2019-05-16T02:41:12.876Z,8.30
2019-05-16T02:43:42.348Z,8.30
2019-05-16T02:46:12.105Z,8.20
2019-05-16T02:48:41.734Z,8.20
2019-05-16T02:51:11.187Z,8.20
2019-05-16T02:53:41.558Z,8.20
2019-05-16T02:56:12.272Z,8.10
2019-05-16T02:58:44.947Z,8.10
2019-05-16T03:01:12.787Z,8.10
2019-05-16T03:03:44.138Z,8.10
2019-05-16T03:06:14.441Z,8.00
2019-05-16T03:08:45.440Z,8.00
2019-05-16T03:11:15.132Z,7.90
2019-05-16T03:13:46.119Z,7.90
2019-05-16T03:16:16.779Z,7.90
2019-05-16T03:18:46.763Z,7.90
2019-05-16T03:21:15.824Z,7.90
2019-05-16T03:23:44.934Z,7.90
2019-05-16T03:26:14.065Z,7.90
2019-05-16T03:28:43.028Z,7.90
2019-05-16T03:31:15.006Z,7.80
2019-05-16T03:33:50.302Z,7.70
2019-05-16T03:36:15.417Z,7.70
2019-05-16T03:38:44.073Z,7.60
2019-05-16T03:41:13.061Z,7.60
2019-05-16T03:43:42.076Z,7.50
2019-05-16T03:46:12.057Z,7.50
2019-05-16T03:48:41.304Z,7.40
2019-05-16T03:51:11.411Z,7.30
2019-05-16T03:53:40.782Z,7.30
2019-05-16T03:56:11.049Z,7.20
2019-05-16T03:58:41.609Z,7.20
2019-05-16T04:01:11.474Z,7.20
2019-05-16T04:03:41.536Z,7.10
2019-05-16T04:06:11.839Z,7.10
2019-05-16T04:08:41.558Z,7.10
2019-05-16T04:11:11.576Z,7.10
2019-05-16T04:13:41.418Z,7.00
2019-05-16T04:16:11.843Z,7.00
2019-05-16T04:18:42.186Z,7.00
2019-05-16T04:21:12.035Z,7.00
2019-05-16T04:23:41.995Z,7.00
2019-05-16T04:26:11.585Z,7.00
2019-05-16T04:28:41.417Z,7.00
2019-05-16T04:31:11.155Z,7.00
2019-05-16T04:33:41.551Z,7.00
2019-05-16T04:36:11.164Z,7.00
2019-05-16T04:38:45.973Z,7.00
2019-05-16T04:41:15.570Z,6.90
2019-05-16T04:43:44.593Z,6.90
2019-05-16T04:46:13.732Z,7.00
2019-05-16T04:48:42.681Z,7.00
2019-05-16T04:51:11.681Z,7.10
2019-05-16T04:53:42.546Z,7.10
2019-05-16T04:56:11.386Z,7.10
2019-05-16T04:58:40.920Z,7.10
2019-05-16T05:01:11.096Z,7.20
2019-05-16T05:03:42.553Z,7.20
2019-05-16T05:06:11.441Z,7.20
2019-05-16T05:08:52.810Z,7.30
2019-05-16T05:11:11.155Z,7.30
2019-05-16T05:13:41.244Z,7.30
2019-05-16T05:16:10.796Z,7.30
2019-05-16T05:18:40.869Z,7.40
2019-05-16T05:21:11.699Z,7.40
2019-05-16T05:23:40.899Z,7.50
2019-05-16T05:26:10.831Z,7.50
2019-05-16T05:28:40.287Z,7.60
2019-05-16T05:31:10.779Z,7.70
2019-05-16T05:33:41.652Z,7.70
2019-05-16T05:36:12.323Z,7.80
2019-05-16T05:38:42.064Z,7.80
2019-05-16T05:41:11.110Z,7.90
2019-05-16T05:43:40.265Z,8.00
2019-05-16T05:46:11.153Z,8.10
2019-05-16T05:48:41.083Z,8.20
2019-05-16T05:51:11.349Z,8.40
2019-05-16T05:53:40.765Z,8.50
2019-05-16T05:56:11.234Z,8.70
2019-05-16T05:58:40.833Z,8.80
2019-05-16T06:01:11.101Z,9.00
2019-05-16T06:03:40.502Z,9.20
2019-05-16T06:06:10.544Z,9.40
2019-05-16T06:08:40.863Z,9.70
2019-05-16T06:11:10.465Z,9.90
2019-05-16T06:13:40.488Z,10.10
2019-05-16T06:16:10.762Z,10.20
2019-05-16T06:18:40.327Z,10.20
2019-05-16T06:21:11.488Z,10.30
2019-05-16T06:23:40.754Z,10.30
2019-05-16T06:26:12.245Z,10.40
2019-05-16T06:28:41.436Z,10.50
2019-05-16T06:31:14.165Z,10.60
2019-05-16T06:33:42.058Z,10.60
2019-05-16T06:36:11.173Z,10.70
2019-05-16T06:38:40.601Z,10.70
2019-05-16T06:41:10.764Z,10.70
2019-05-16T06:43:40.143Z,10.60
2019-05-16T06:46:11.074Z,10.40
2019-05-16T06:48:40.031Z,10.40
2019-05-16T06:51:10.779Z,10.40
2019-05-16T06:53:40.517Z,10.50
2019-05-16T06:56:10.458Z,10.60
2019-05-16T06:58:47.792Z,10.70
2019-05-16T07:01:10.930Z,10.60
2019-05-16T07:03:40.256Z,10.60
2019-05-16T07:06:13.965Z,10.60
2019-05-16T07:08:40.393Z,10.60
2019-05-16T07:11:10.541Z,10.60
2019-05-16T07:13:40.620Z,10.60
2019-05-16T07:16:09.998Z,10.60
2019-05-16T07:18:40.211Z,10.50
2019-05-16T07:21:10.833Z,10.50
2019-05-16T07:23:40.529Z,10.50
2019-05-16T07:26:10.049Z,10.50
2019-05-16T07:28:40.652Z,10.50
2019-05-16T07:31:15.718Z,10.60
2019-05-16T07:33:41.067Z,10.60
2019-05-16T07:36:10.174Z,10.80
2019-05-16T07:38:40.024Z,10.90
2019-05-16T07:41:11.118Z,11.10
2019-05-16T07:43:40.249Z,11.20
2019-05-16T07:46:11.138Z,11.30
2019-05-16T07:48:40.453Z,11.40
2019-05-16T07:51:10.502Z,11.40
2019-05-16T07:53:40.406Z,11.40
2019-05-16T07:56:10.570Z,11.50
2019-05-16T07:58:41.340Z,11.60
2019-05-16T08:01:12.526Z,11.70
2019-05-16T08:03:44.083Z,11.70
2019-05-16T08:06:12.401Z,11.70
2019-05-16T08:08:41.372Z,11.70
2019-05-16T08:11:12.205Z,11.80
2019-05-16T08:13:41.623Z,11.90
2019-05-16T08:16:10.942Z,11.90
2019-05-16T08:18:44.657Z,12.00
2019-05-16T08:21:16.054Z,12.00
2019-05-16T08:23:41.782Z,12.10
2019-05-16T08:26:10.775Z,12.30
2019-05-16T08:28:41.289Z,12.30
2019-05-16T08:33:41.897Z,12.40
2019-05-16T08:36:12.000Z,12.50
2019-05-16T08:38:43.341Z,12.50
2019-05-16T08:41:16.800Z,12.50
2019-05-16T08:43:43.023Z,12.50
2019-05-16T08:46:12.429Z,12.60
2019-05-16T08:50:05.530Z,12.60
2019-05-16T08:51:12.572Z,12.60
2019-05-16T08:53:43.333Z,12.50
2019-05-16T08:56:13.760Z,12.50
2019-05-16T08:58:42.794Z,12.40
2019-05-16T09:01:14.669Z,12.40
2019-05-16T09:03:42.875Z,12.30
2019-05-16T09:06:13.377Z,12.30
2019-05-16T09:08:42.503Z,12.30
2019-05-16T09:10:40.277Z,12.30
2019-05-16T09:11:29.394Z,12.30
2019-05-16T09:13:42.586Z,12.30
2019-05-16T09:16:11.844Z,12.20
2019-05-16T09:18:45.279Z,12.10
2019-05-16T09:21:11.968Z,12.10
2019-05-16T09:23:41.316Z,12.10
2019-05-16T09:26:10.700Z,12.10
2019-05-16T09:28:41.348Z,12.20
2019-05-16T09:31:10.457Z,12.20
2019-05-16T09:33:39.600Z,12.30
2019-05-16T09:36:08.646Z,12.40
2019-05-16T09:38:38.399Z,12.40
2019-05-16T09:41:08.243Z,12.50
2019-05-16T09:43:38.940Z,12.50
2019-05-16T09:46:08.440Z,12.60
2019-05-16T09:48:38.168Z,12.70
2019-05-16T09:51:07.731Z,12.80
2019-05-16T09:53:37.044Z,12.90
2019-05-16T09:56:07.004Z,13.00
2019-05-16T09:58:37.194Z,13.20
2019-05-16T10:01:07.135Z,13.20
2019-05-16T10:03:37.335Z,13.40
2019-05-16T10:06:07.983Z,13.50
2019-05-16T10:08:37.543Z,13.60
2019-05-16T10:11:06.879Z,13.60
2019-05-16T10:13:37.665Z,13.70
2019-05-16T10:16:07.434Z,13.70
2019-05-16T10:18:37.110Z,13.70
2019-05-16T10:21:07.964Z,13.70
2019-05-16T10:23:37.378Z,13.70
2019-05-16T10:26:06.674Z,13.70
2019-05-16T10:28:38.321Z,13.60
2019-05-16T10:31:07.019Z,13.60
2019-05-16T10:33:38.987Z,13.50
2019-05-16T10:36:08.363Z,13.50
2019-05-16T10:38:37.781Z,13.50
2019-05-16T10:41:07.331Z,13.60
2019-05-16T10:43:37.116Z,13.60
2019-05-16T10:46:06.712Z,13.60
2019-05-16T10:48:37.637Z,13.70
2019-05-16T10:51:07.851Z,13.80
2019-05-16T10:54:00.603Z,13.90
2019-05-16T10:56:08.030Z,14.00
2019-05-16T10:58:57.982Z,14.00
2019-05-16T11:01:22.117Z,14.00
2019-05-16T11:03:38.641Z,14.10
2019-05-16T11:06:13.180Z,14.20
2019-05-16T11:08:39.648Z,14.20
2019-05-16T11:11:09.080Z,14.20
2019-05-16T11:13:38.374Z,14.20
2019-05-16T11:16:09.585Z,14.20
2019-05-16T11:18:38.330Z,14.20
2019-05-16T11:21:07.417Z,14.20
2019-05-16T11:23:36.819Z,14.10
2019-05-16T11:26:06.096Z,14.10
2019-05-16T11:28:36.845Z,14.10
2019-05-16T11:31:07.751Z,14.20
2019-05-16T11:33:37.139Z,14.30
2019-05-16T11:36:08.093Z,14.30
2019-05-16T11:38:37.983Z,14.30
2019-05-16T11:41:07.615Z,14.40
2019-05-16T11:43:36.851Z,14.40
2019-05-16T11:46:06.053Z,14.40
2019-05-16T11:48:37.658Z,14.40
2019-05-16T11:51:07.258Z,14.50
2019-05-16T11:53:37.818Z,14.50
2019-05-16T11:56:08.273Z,14.50
2019-05-16T11:58:37.804Z,14.50
2019-05-16T12:01:07.879Z,14.60
2019-05-16T12:03:37.493Z,14.70
2019-05-16T12:06:10.699Z,14.90
2019-05-16T12:08:37.694Z,15.00
2019-05-16T12:11:07.137Z,15.00
2019-05-16T12:13:36.920Z,15.00
2019-05-16T12:16:07.523Z,15.00
2019-05-16T12:18:37.418Z,15.00
2019-05-16T12:21:07.537Z,14.90
2019-05-16T12:23:37.599Z,14.90
2019-05-16T12:26:07.731Z,14.90
2019-05-16T12:28:37.107Z,14.90
2019-05-16T12:31:07.188Z,15.00
2019-05-16T12:33:37.315Z,15.00
2019-05-16T12:36:07.598Z,15.00
2019-05-16T12:38:37.937Z,14.90
2019-05-16T12:41:07.648Z,15.00
2019-05-16T12:43:46.125Z,15.20
2019-05-16T12:46:07.796Z,15.30
2019-05-16T12:48:37.519Z,15.40
2019-05-16T12:51:08.306Z,15.50
2019-05-16T12:53:37.690Z,15.60
2019-05-16T12:56:07.036Z,15.70
2019-05-16T12:58:40.794Z,15.70
2019-05-16T13:01:07.692Z,15.70
2019-05-16T13:03:37.961Z,15.70
2019-05-16T13:06:07.221Z,15.80
2019-05-16T13:08:37.543Z,15.70
2019-05-16T13:11:07.365Z,15.70
2019-05-16T13:13:37.718Z,15.60
2019-05-16T13:16:07.703Z,15.50
2019-05-16T13:18:37.147Z,15.60
2019-05-16T13:21:06.991Z,15.50
2019-05-16T13:23:36.295Z,15.30
2019-05-16T13:26:07.267Z,15.20
2019-05-16T13:28:37.753Z,15.20
2019-05-16T13:31:07.869Z,15.30
2019-05-16T13:33:37.427Z,15.20
2019-05-16T13:36:07.575Z,15.20
2019-05-16T13:38:36.877Z,15.30
2019-05-16T13:41:07.386Z,15.30
2019-05-16T13:43:37.589Z,15.30
2019-05-16T13:46:07.332Z,15.20
2019-05-16T13:48:37.751Z,15.20
2019-05-16T13:51:14.712Z,15.20
2019-05-16T13:53:37.930Z,15.30
2019-05-16T13:56:12.965Z,15.30
2019-05-16T13:58:37.829Z,15.30
2019-05-16T14:01:07.852Z,15.40
2019-05-16T14:03:37.472Z,15.40
2019-05-16T14:06:07.333Z,15.60
2019-05-16T14:08:37.313Z,15.60
2019-05-16T14:11:10.484Z,15.70
2019-05-16T14:13:37.825Z,15.80
2019-05-16T14:16:07.410Z,15.90
2019-05-16T14:18:37.938Z,16.00
2019-05-16T14:21:07.466Z,16.10
2019-05-16T14:23:38.017Z,16.20
2019-05-16T14:26:07.501Z,16.30
2019-05-16T14:28:37.470Z,16.30
2019-05-16T14:31:07.638Z,16.40
2019-05-16T14:33:36.865Z,16.50
2019-05-16T14:36:07.302Z,16.50
2019-05-16T14:38:37.434Z,16.50
2019-05-16T14:41:08.193Z,16.50
2019-05-16T14:43:37.551Z,16.60
2019-05-16T14:46:09.431Z,16.60
2019-05-16T14:48:37.660Z,16.70
2019-05-16T14:51:06.691Z,16.70
2019-05-16T14:53:37.882Z,16.80
2019-05-16T14:56:07.190Z,16.80
2019-05-16T14:58:37.820Z,16.80
2019-05-16T15:01:07.651Z,16.70
2019-05-16T15:03:37.090Z,16.60
2019-05-16T15:06:08.609Z,16.70
2019-05-16T15:08:37.244Z,16.70
2019-05-16T15:11:07.557Z,16.70
2019-05-16T15:13:57.826Z,16.80
2019-05-16T15:16:27.409Z,16.90
2019-05-16T15:18:57.572Z,17.00
2019-05-16T15:21:26.857Z,17.00
2019-05-16T15:23:59.439Z,16.90
2019-05-16T15:26:27.209Z,16.80
2019-05-16T15:28:58.903Z,16.80
2019-05-16T15:31:27.405Z,16.90
2019-05-16T15:33:57.265Z,16.90
2019-05-16T15:36:27.138Z,17.00
2019-05-16T15:38:59.413Z,17.00
2019-05-16T15:41:27.394Z,17.10
2019-05-16T15:43:58.984Z,17.10
2019-05-16T15:46:27.679Z,17.20
2019-05-16T15:48:57.534Z,17.30
2019-05-16T15:51:27.980Z,17.40
2019-05-16T15:53:57.634Z,17.50
2019-05-16T15:56:27.221Z,17.50
2019-05-16T15:58:56.270Z,17.50
2019-05-16T16:01:27.072Z,17.50
2019-05-16T16:03:56.139Z,17.50
2019-05-16T16:06:27.468Z,17.60
2019-05-16T16:08:56.002Z,17.60
2019-05-16T16:11:27.131Z,17.60
2019-05-16T16:13:57.714Z,17.60
2019-05-16T16:16:26.896Z,17.60
2019-05-16T16:18:57.442Z,17.60
2019-05-16T16:21:27.341Z,17.50
2019-05-16T16:23:57.309Z,17.50
2019-05-16T16:26:26.858Z,17.50
2019-05-16T16:28:55.974Z,17.50
2019-05-16T16:31:27.268Z,17.50
2019-05-16T16:33:57.256Z,17.60
2019-05-16T16:36:27.580Z,17.50
2019-05-16T16:38:56.832Z,17.50
2019-05-16T16:41:27.686Z,17.50
2019-05-16T16:43:57.180Z,17.50
2019-05-16T16:46:27.115Z,17.50
2019-05-16T16:48:56.895Z,17.50
2019-05-16T16:51:26.901Z,17.50
2019-05-16T16:53:57.015Z,17.40
2019-05-16T16:56:27.424Z,17.30
2019-05-16T16:58:56.789Z,17.20
2019-05-16T17:01:27.222Z,17.20
2019-05-16T17:03:57.459Z,17.20
2019-05-16T17:06:27.161Z,17.10
2019-05-16T17:08:56.860Z,17.00
2019-05-16T17:11:26.533Z,17.00
2019-05-16T17:13:56.569Z,17.00
2019-05-16T17:16:28.988Z,17.10
2019-05-16T17:18:57.082Z,17.20
2019-05-16T17:21:26.283Z,17.20
2019-05-16T17:23:56.897Z,17.20
2019-05-16T17:26:27.529Z,17.20
2019-05-16T17:28:57.217Z,17.20
2019-05-16T17:31:26.389Z,17.10
2019-05-16T17:33:57.834Z,17.00
2019-05-16T17:36:26.662Z,16.90
2019-05-16T17:38:57.111Z,16.70
2019-05-16T17:41:27.330Z,16.60
2019-05-16T17:43:56.900Z,16.40
2019-05-16T17:46:36.700Z,16.30
2019-05-16T17:48:57.578Z,16.20
2019-05-16T17:51:26.953Z,16.10
2019-05-16T17:53:57.085Z,16.00
2019-05-16T17:56:26.508Z,15.80
2019-05-16T17:58:56.943Z,15.70
2019-05-16T18:01:27.399Z,15.60
2019-05-16T18:03:57.350Z,15.50
2019-05-16T18:06:27.144Z,15.40
2019-05-16T18:08:57.162Z,15.40
2019-05-16T18:11:26.904Z,15.30
2019-05-16T18:13:57.058Z,15.20
2019-05-16T18:16:26.314Z,15.00
2019-05-16T18:18:57.490Z,15.00
2019-05-16T18:21:26.929Z,14.90
2019-05-16T18:23:56.057Z,14.90
2019-05-16T18:26:26.835Z,14.80
2019-05-16T18:28:56.130Z,14.70
2019-05-16T18:31:26.607Z,14.60
2019-05-16T18:33:56.637Z,14.60
2019-05-16T18:36:26.445Z,14.50
2019-05-16T18:38:57.492Z,14.50
2019-05-16T18:41:27.200Z,14.50
2019-05-16T18:43:56.614Z,14.50
2019-05-16T18:46:26.953Z,14.40
2019-05-16T18:48:56.580Z,14.40
2019-05-16T18:51:26.456Z,14.40
2019-05-16T18:53:57.038Z,14.30
2019-05-16T18:56:27.289Z,14.30
2019-05-16T18:58:57.232Z,14.20
2019-05-16T19:01:26.945Z,14.20
2019-05-16T19:03:57.619Z,14.10
2019-05-16T19:06:27.612Z,14.10
2019-05-16T19:08:58.404Z,14.10
2019-05-16T19:11:28.194Z,14.00
2019-05-16T19:13:59.374Z,13.90
2019-05-16T19:16:28.206Z,13.90
2019-05-16T19:18:58.551Z,13.80
2019-05-16T19:21:28.057Z,13.80
2019-05-16T19:23:57.268Z,13.80
2019-05-16T19:26:27.285Z,13.70
2019-05-16T19:28:57.204Z,13.70
2019-05-16T19:31:27.488Z,13.70
2019-05-16T19:33:56.708Z,13.70
2019-05-16T19:36:27.055Z,13.60
2019-05-16T19:38:57.048Z,13.60
2019-05-16T19:41:27.188Z,13.60
2019-05-16T19:43:57.211Z,13.50
2019-05-16T19:46:27.188Z,13.50
2019-05-16T19:48:57.126Z,13.40
2019-05-16T19:51:26.924Z,13.30
2019-05-16T19:53:56.604Z,13.20
2019-05-16T19:56:26.978Z,13.20
2019-05-16T19:58:57.151Z,13.10
2019-05-16T20:01:27.408Z,13.10
2019-05-16T20:03:56.720Z,13.00
2019-05-16T20:06:27.470Z,13.00
2019-05-16T20:08:56.775Z,12.90
2019-05-16T20:11:38.990Z,12.90
2019-05-16T20:14:08.013Z,12.90
2019-05-16T20:16:37.528Z,12.80
2019-05-16T20:19:06.868Z,12.80
2019-05-16T20:21:36.933Z,12.80
2019-05-16T20:24:07.463Z,12.70
2019-05-16T20:26:36.869Z,12.70
2019-05-16T20:29:07.689Z,12.70
2019-05-16T20:31:36.950Z,12.70
2019-05-16T20:34:09.078Z,12.70
2019-05-16T20:36:37.091Z,12.70
2019-05-16T20:39:08.576Z,12.60
2019-05-16T20:41:37.718Z,12.60
2019-05-16T20:44:06.818Z,12.60
2019-05-16T20:46:35.861Z,12.60
2019-05-16T20:49:07.555Z,12.60
2019-05-16T20:51:37.625Z,12.50
2019-05-16T20:54:07.308Z,12.50
2019-05-16T20:56:36.467Z,12.50
2019-05-16T20:59:07.028Z,12.50
2019-05-16T21:01:36.243Z,12.50
2019-05-16T21:04:07.015Z,12.40
2019-05-16T21:06:36.864Z,12.40
2019-05-16T21:09:06.948Z,12.40
2019-05-16T21:11:37.105Z,12.30
2019-05-16T21:14:07.094Z,12.30
2019-05-16T21:16:37.966Z,12.30
2019-05-16T21:19:07.265Z,12.30
2019-05-16T21:21:36.774Z,12.20
2019-05-16T21:24:06.962Z,12.20
2019-05-16T21:26:36.773Z,12.20
2019-05-16T21:29:07.516Z,12.20
2019-05-16T21:31:36.901Z,12.10
2019-05-16T21:34:07.126Z,12.10
2019-05-16T21:36:36.792Z,12.10
2019-05-16T21:39:08.538Z,12.10
2019-05-16T21:41:37.887Z,12.10
2019-05-16T21:44:08.391Z,12.00
2019-05-16T21:46:38.803Z,12.00
2019-05-16T21:49:08.033Z,12.00
2019-05-16T21:51:37.483Z,11.90
2019-05-16T21:54:07.227Z,11.90
2019-05-16T21:56:37.274Z,11.80
2019-05-16T21:59:06.929Z,11.70
2019-05-16T22:01:37.324Z,11.60
2019-05-16T22:04:07.324Z,11.60
2019-05-16T22:06:36.706Z,11.50
2019-05-16T22:09:07.933Z,11.50
2019-05-16T22:11:37.229Z,11.40
2019-05-16T22:14:06.657Z,11.30
2019-05-16T22:16:37.040Z,11.20
2019-05-16T22:19:07.146Z,11.20
2019-05-16T22:21:36.295Z,11.10
2019-05-16T22:24:06.547Z,11.10
2019-05-16T22:26:36.067Z,11.10
2019-05-16T22:29:06.875Z,11.00
2019-05-16T22:31:36.625Z,11.00
2019-05-16T22:34:07.559Z,10.90
2019-05-16T22:36:37.236Z,10.90
2019-05-16T22:39:07.496Z,10.80
2019-05-16T22:41:37.161Z,10.70
2019-05-16T22:44:08.610Z,10.70
2019-05-16T22:46:37.250Z,10.70
2019-05-16T22:49:07.608Z,10.60
2019-05-16T22:51:37.731Z,10.60
2019-05-16T22:54:07.652Z,10.60
2019-05-16T22:56:37.540Z,10.60
2019-05-16T22:59:07.314Z,10.60
2019-05-16T23:01:37.699Z,10.50
2019-05-16T23:04:07.343Z,10.60
2019-05-16T23:06:36.651Z,10.60
2019-05-16T23:09:07.130Z,10.60
2019-05-16T23:11:36.706Z,10.60
2019-05-16T23:14:06.274Z,10.60
2019-05-16T23:16:37.428Z,10.60
2019-05-16T23:19:06.896Z,10.60
2019-05-16T23:21:36.779Z,10.50
2019-05-16T23:24:06.777Z,10.50
2019-05-16T23:26:36.385Z,10.50
2019-05-16T23:29:05.597Z,10.50
2019-05-16T23:31:36.545Z,10.40
2019-05-16T23:34:07.203Z,10.40
2019-05-16T23:36:37.043Z,10.40
2019-05-16T23:39:07.517Z,10.40
2019-05-16T23:41:37.327Z,10.40
2019-05-16T23:44:07.447Z,10.30
2019-05-16T23:46:36.801Z,10.20
2019-05-16T23:49:07.228Z,10.10
2019-05-16T23:51:36.842Z,10.00
2019-05-16T23:54:06.681Z,10.00
2019-05-16T23:56:37.203Z,10.00
2019-05-16T23:59:06.762Z,10.00
